Flight Track Log - Related Links

Times and Time Zones

All times are in EDT time to prevent confusion due to time zone crossing. See the UAL481 flight status page for this flight to view local times or setup timezone preferences in your user account.


Time Position Orientation Groundspeed Altitude Reporting Facility
EDT Latitude Longitude Course Direction KTS MPH feet Rate Location/Type
Thu 06:09:47 PM 42.7236 -73.8050 324° Northwest 147 169 1,400  Level Boston Center
Thu 06:10:42 PM 42.6961 -73.8383 222° Southwest 192 221 2,900 2,328 Climbing Boston Center
Thu 06:11:43 PM 42.7369 -73.9128 307° West 261 300 5,900 3,042 Climbing Boston Center
Thu 06:13:06 PM 42.8067 -73.9908 321° Northwest 261 300 10,200 2,685 Climbing Boston Center
Thu 06:14:06 PM 42.8619 -74.0547 320° Northwest 272 313 12,300 2,950 Climbing Boston Center
Thu 06:15:00 PM 42.8820 -74.5487 324° Northwest  Level FlightAware Approximate
Thu 06:15:06 PM 42.9439 -74.1503 320° Northwest 317 365 16,100  Level Boston Center
Thu 06:16:06 PM 42.9903 -74.2511 302° West 317 365 18,400 2,250 Climbing Boston Center
Thu 06:17:06 PM 42.9989 -74.3706 276° West 317 365 20,600 2,000 Climbing Boston Center
Thu 06:18:06 PM 43.0111 -74.4986 277° West 330 380 22,400 1,682 Climbing Boston Center
Thu 06:19:18 PM 43.0253 -74.6356 278° West 353 406 24,300 1,955 Climbing Boston Center
Thu 06:20:18 PM 43.0408 -74.8036 277° West 368 423 26,700 1,950 Climbing Boston Center
Thu 06:21:18 PM 43.0544 -74.9436 278° West 373 429 28,200 1,450 Climbing Boston Center
Thu 06:22:18 PM 43.0658 -75.0889 276° West 379 436 29,600 1,300 Climbing Boston Center
Thu 06:23:18 PM 43.0767 -75.2400 276° West 392 451 30,800 1,200 Climbing Boston Center
Thu 06:24:18 PM 43.0917 -75.3944 278° West 402 463 32,000 1,300 Climbing Boston Center
Thu 06:25:18 PM 43.1058 -75.5628 277° West 413 475 33,400 1,450 Climbing Boston Center
Thu 06:26:18 PM 43.1203 -75.7172 277° West 413 475 34,900 800 Climbing Boston Center
Thu 06:27:18 PM 43.1325 -75.8658 276° West 406 467 35,000 150 Climbing Boston Center
Thu 06:28:18 PM 43.1447 -76.0147 276° West 406 467 35,200 750 Climbing Boston Center
Thu 06:29:18 PM 43.1586 -76.1633 277° West 406 467 36,500 1,013 Climbing Boston Center
Thu 06:30:58 PM 43.1597 -76.3933 270° West 389 448 37,900 563 Climbing Cleveland Center
Thu 06:31:58 PM 43.1608 -76.5414 271° West 389 448 38,000 50 Climbing Cleveland Center
Thu 06:32:58 PM 43.1597 -76.6922 269° West 389 448 38,000  Level Cleveland Center
Thu 06:33:58 PM 43.1583 -76.8375 269° West 389 448 38,000  Level Cleveland Center
Thu 06:34:58 PM 43.1589 -76.9883 270° West 389 448 38,000  Level Cleveland Center
Thu 06:35:58 PM 43.1572 -77.1367 269° West 389 448 38,000  Level Cleveland Center
Thu 06:36:58 PM 43.1572 -77.2844 270° West 389 448 38,000  Level Cleveland Center
Thu 06:37:58 PM 43.1553 -77.4383 269° West 394 453 38,000  Level Cleveland Center
Thu 06:38:58 PM 43.1553 -77.5922 270° West 404 465 38,000  Level Cleveland Center
Thu 06:39:58 PM 43.1508 -77.7461 268° West 404 465 38,000  Level Cleveland Center
Thu 06:40:58 PM 43.1503 -77.8997 270° West 404 465 38,000  Level Cleveland Center
Thu 06:41:58 PM 43.1475 -78.0536 269° West 404 465 38,000  Level Cleveland Center
Thu 06:42:58 PM 43.1464 -78.2072 269° West 404 465 38,000  Level Cleveland Center
Thu 06:43:58 PM 43.1436 -78.3808 269° West 414 476 38,000  Level Cleveland Center
Thu 06:44:58 PM 43.1383 -78.5375 267° West 414 476 38,000  Level Cleveland Center
Thu 06:45:58 PM 43.1325 -78.6942 267° West 414 476 38,000  Level Cleveland Center
Thu 06:46:58 PM 43.1308 -78.8536 269° West 419 482 38,000  Level Cleveland Center
Thu 06:47:58 PM 43.1247 -79.0103 267° West 419 482 38,000  Level Cleveland Center
Thu 06:48:58 PM 43.1186 -79.1697 267° West 419 482 38,000 -591 Level Cleveland Center
Thu 06:50:10 PM 43.1000 -79.3333 261° West 410 472 36,700 -1,136 Descending Toronto Center
Thu 06:51:10 PM 43.1000 -79.5000 270° West 420 483 35,500 -1,250 Descending Toronto Center
Thu 06:52:10 PM 43.1000 -79.6500 270° West 410 472 34,200 -1,200 Descending Toronto Center
Thu 06:53:10 PM 43.0833 -79.8000 261° West 400 460 33,100 -1,050 Descending Toronto Center
Thu 06:54:10 PM 43.0833 -79.9500 270° West 410 472 32,100 -550 Descending Toronto Center
Thu 06:55:10 PM 43.0667 -80.1167 262° West 410 472 32,000 -50 Descending Toronto Center
Thu 06:56:10 PM 43.0667 -80.2667 270° West 420 483 32,000  Level Toronto Center
Thu 06:57:10 PM 43.0667 -80.4333 270° West 410 472 32,000  Level Toronto Center
Thu 06:58:10 PM 43.0500 -80.5833 261° West 420 483 32,000  Level Toronto Center
Thu 06:59:10 PM 43.0500 -80.7500 270° West 410 472 32,000  Level Toronto Center
Thu 07:00:10 PM 43.0333 -80.8833 260° West 410 472 32,000  Level Toronto Center
Thu 07:01:10 PM 43.0167 -81.0667 263° West 420 483 32,000  Level Toronto Center
Thu 07:02:10 PM 43.0167 -81.2000 270° West 420 483 32,000  Level Toronto Center
Thu 07:03:10 PM 43.0167 -81.3667 270° West 410 472 32,000  Level Toronto Center
Thu 07:04:10 PM 43.0167 -81.5333 270° West 410 472 32,000  Level Toronto Center
Thu 07:05:10 PM 43.0167 -81.6833 270° West 420 483 32,000  Level Toronto Center
Thu 07:06:10 PM 43.0167 -81.8500 270° West 420 483 32,000  Level Toronto Center
Thu 07:07:10 PM 43.0000 -82.0000 261° West 420 483 32,000  Level Toronto Center
Thu 07:08:10 PM 43.0000 -82.1667 270° West 420 483 32,000  Level Toronto Center
Thu 07:09:10 PM 43.0000 -82.3167 270° West 420 483 32,000 -200 Level Toronto Center
Thu 07:10:10 PM 43.0000 -82.4833 270° West 420 483 31,600 -700 Descending Toronto Center
Thu 07:11:10 PM 42.9833 -82.6500 262° West 420 483 30,600 -889 Descending Toronto Center
Thu 07:11:58 PM 42.9981 -82.7689 280° West 424 488 30,000 -333 Descending Cleveland Center
Thu 07:12:58 PM 42.9928 -82.9306 267° West 424 488 30,000  Level Cleveland Center
Thu 07:13:58 PM 42.9894 -83.0922 268° West 424 488 30,000  Level Cleveland Center
Thu 07:14:58 PM 42.9814 -83.2567 266° West 424 488 30,000  Level Cleveland Center
Thu 07:15:58 PM 42.9778 -83.4183 268° West 429 494 30,000  Level Cleveland Center
Thu 07:16:58 PM 42.9714 -83.5853 267° West 434 499 30,000 -600 Level Cleveland Center
Thu 07:17:58 PM 42.9647 -83.7525 267° West 441 507 28,800 -1,000 Descending Cleveland Center
Thu 07:18:58 PM 42.9500 -83.9106 263° West 435 501 28,000 -400 Descending Cleveland Center
Thu 07:19:58 PM 42.9347 -84.0686 263° West 430 495 28,000  Level Cleveland Center
Thu 07:20:58 PM 42.9197 -84.2236 263° West 425 489 28,000  Level Cleveland Center
Thu 07:22:07 PM 42.9011 -84.4144 262° West 424 488 28,000  Level Chicago Center
Thu 07:23:09 PM 42.8850 -84.5728 262° West 423 487 28,000  Level Chicago Center
Thu 07:24:11 PM 42.8675 -84.7319 262° West 426 490 28,000  Level Chicago Center
Thu 07:25:13 PM 42.8506 -84.8928 262° West 429 494 28,000  Level Chicago Center
Thu 07:26:15 PM 42.8347 -85.0531 262° West 429 494 28,000 -435 Level Chicago Center
Thu 07:27:17 PM 42.8136 -85.2456 262° West 429 494 27,100 -912 Descending Chicago Center
Thu 07:28:20 PM 42.7969 -85.4006 262° West 418 481 26,100 -816 Descending Chicago Center
Thu 07:29:22 PM 42.7769 -85.5544 260° West 412 474 25,400 -484 Descending Chicago Center
Thu 07:30:24 PM 42.7483 -85.7047 256° West 410 472 25,100 -726 Descending Chicago Center
Thu 07:31:26 PM 42.7211 -85.8547 256° West 407 468 23,900 -1,355 Descending Chicago Center
Thu 07:32:28 PM 42.6947 -86.0003 256° West 399 459 22,300 -1,548 Descending Chicago Center
Thu 07:33:30 PM 42.6686 -86.1422 256° West 389 448 20,700 -1,104 Descending Chicago Center
Thu 07:34:33 PM 42.6383 -86.3094 256° West 381 438 20,000 -387 Descending Chicago Center
Thu 07:35:34 PM 42.6119 -86.4458 255° West 377 434 19,900 -1,024 Descending Chicago Center
Thu 07:36:36 PM 42.5869 -86.5811 256° West 372 428 17,900 -1,935 Descending Chicago Center
Thu 07:37:38 PM 42.5631 -86.7117 256° West 359 413 15,900 -1,984 Descending Chicago Center
Thu 07:38:40 PM 42.5300 -86.8358 250° West 354 407 13,800 -2,016 Descending Chicago Center
Thu 07:39:43 PM 42.4972 -86.9572 250° West 345 397 11,700 -1,872 Descending Chicago Center
Thu 07:40:45 PM 42.4567 -87.0975 249° West 336 387 9,900 -823 Descending Chicago Center
Thu 07:41:47 PM 42.4247 -87.2128 249° West 330 380 10,000 -387 Climbing Chicago Center
Thu 07:42:49 PM 42.3978 -87.3142 250° West 296 341 9,100 -871 Descending Chicago Center
Thu 07:43:51 PM 42.3669 -87.4094 246° West 283 326 8,200 -1,065 Descending Chicago Center
Thu 07:44:53 PM 42.3297 -87.5181 245° Southwest 273 314 6,900 -581 Descending Chicago Center
Thu 07:45:55 PM 42.2736 -87.5869 222° Southwest 267 307 7,000 -194 Climbing Chicago Center
Thu 07:46:57 PM 42.2169 -87.6533 221° Southwest 268 308 6,500 -919 Descending Chicago Center
Thu 07:47:59 PM 42.1606 -87.7167 220° Southwest 265 305 5,100 -1,355 Descending Chicago Center

Login

Don't have an account? Register now (free) for customized features, flight alerts, and more!